createdAt,value
2022-09-04T00:00:15.149Z,10.55
2022-09-04T00:03:16.867Z,14.68
2022-09-04T00:05:52.970Z,11.60
2022-09-04T00:08:25.799Z,13.25
2022-09-04T00:14:09.573Z,13.55
2022-09-04T00:16:43.032Z,15.40
2022-09-04T00:19:18.900Z,10.80
2022-09-04T00:21:51.854Z,13.15
2022-09-04T00:27:06.299Z,16.63
2022-09-04T00:29:51.515Z,11.65
2022-09-04T00:32:34.173Z,10.35
2022-09-04T00:35:05.849Z,13.68
2022-09-04T00:37:38.467Z,11.98
2022-09-04T00:40:21.676Z,13.30
2022-09-04T00:43:09.962Z,13.75
2022-09-04T00:46:05.332Z,11.68
2022-09-04T00:49:05.042Z,13.05
2022-09-04T00:52:11.027Z,11.65
2022-09-04T00:55:07.029Z,12.90
2022-09-04T00:57:52.194Z,8.30
2022-09-04T01:00:20.724Z,12.25
2022-09-04T01:03:21.010Z,17.08
2022-09-04T01:06:03.900Z,12.32
2022-09-04T01:08:42.437Z,13.63
2022-09-04T01:11:15.591Z,10.18
2022-09-04T01:14:20.146Z,11.52
2022-09-04T01:16:55.345Z,10.32
2022-09-04T01:19:28.291Z,14.25
2022-09-04T01:25:01.942Z,11.88
2022-09-04T01:27:51.439Z,13.02
2022-09-04T01:30:19.835Z,13.55
2022-09-04T01:32:58.662Z,18.98
2022-09-04T01:35:37.690Z,18.30
2022-09-04T01:38:33.449Z,16.50
2022-09-04T01:41:08.013Z,15.20
2022-09-04T01:43:34.907Z,16.60
2022-09-04T01:46:41.203Z,16.45
2022-09-04T01:49:36.822Z,16.40
2022-09-04T01:52:42.748Z,13.25
2022-09-04T01:55:37.000Z,11.90
2022-09-04T01:58:12.699Z,11.95
2022-09-04T02:00:50.358Z,10.57
2022-09-04T02:03:42.082Z,18.42
2022-09-04T02:06:17.211Z,18.38
2022-09-04T02:08:52.184Z,15.45
2022-09-04T02:11:27.914Z,14.98
2022-09-04T02:14:19.647Z,14.00
2022-09-04T02:16:49.483Z,22.08
2022-09-04T02:19:43.298Z,16.60
2022-09-04T02:22:25.394Z,17.58
2022-09-04T02:25:20.023Z,16.77
2022-09-04T02:32:33.095Z,15.60
2022-09-04T02:35:21.448Z,16.45
2022-09-04T02:37:59.567Z,14.88
2022-09-04T02:41:03.799Z,18.83
2022-09-04T02:43:45.538Z,15.82
2022-09-04T02:46:16.350Z,15.68
2022-09-04T02:48:58.117Z,19.05
2022-09-04T02:51:44.166Z,24.15
2022-09-04T02:54:30.462Z,20.10
2022-09-04T02:57:04.223Z,20.75
2022-09-04T02:59:52.735Z,22.27
2022-09-04T03:02:27.028Z,20.42
2022-09-04T03:05:06.108Z,21.00
2022-09-04T03:08:20.363Z,22.83
2022-09-04T03:10:56.503Z,20.42
2022-09-04T03:13:29.190Z,23.40
2022-09-04T03:16:01.899Z,24.83
2022-09-04T03:18:55.480Z,21.98
2022-09-04T03:21:49.777Z,22.20
2022-09-04T03:24:27.532Z,24.10
2022-09-04T03:26:56.068Z,32.80
2022-09-04T03:29:54.186Z,22.58
2022-09-04T03:32:26.607Z,27.15
2022-09-04T03:35:07.050Z,24.35
2022-09-04T03:37:52.956Z,26.38
2022-09-04T03:40:41.679Z,27.90
2022-09-04T03:43:20.453Z,23.75
2022-09-04T03:46:11.882Z,34.80
2022-09-04T03:48:58.950Z,34.15
2022-09-04T03:51:55.667Z,29.05
2022-09-04T03:54:32.301Z,31.83
2022-09-04T03:57:03.238Z,29.77
2022-09-04T04:00:11.436Z,24.05
2022-09-04T04:03:02.195Z,25.83
2022-09-04T04:05:47.800Z,25.98
2022-09-04T04:08:47.717Z,31.30
2022-09-04T04:11:32.707Z,21.25
2022-09-04T04:14:38.312Z,19.23
2022-09-04T04:17:16.610Z,25.13
2022-09-04T04:20:17.726Z,25.48
2022-09-04T04:23:10.187Z,22.60
2022-09-04T04:26:01.492Z,56.87
2022-09-04T04:28:48.403Z,29.50
2022-09-04T04:31:37.749Z,24.95
2022-09-04T04:34:25.654Z,22.05
2022-09-04T04:36:55.545Z,28.27
2022-09-04T04:39:36.068Z,37.35
2022-09-04T04:42:23.265Z,25.30
2022-09-04T04:45:23.918Z,23.83
2022-09-04T04:48:14.695Z,24.75
2022-09-04T04:51:05.864Z,24.50
2022-09-04T04:53:45.877Z,22.20
2022-09-04T04:56:19.643Z,20.92
2022-09-04T04:58:53.827Z,22.45
2022-09-04T05:02:39.631Z,22.58
2022-09-04T05:06:21.246Z,23.33
2022-09-04T05:08:57.168Z,30.33
2022-09-04T05:11:37.655Z,24.30
2022-09-04T05:14:25.488Z,20.98
2022-09-04T05:17:24.080Z,20.75
2022-09-04T05:20:14.895Z,19.70
2022-09-04T05:27:51.019Z,29.85
2022-09-04T05:30:39.197Z,32.60
2022-09-04T05:33:11.112Z,34.58
2022-09-04T05:35:48.129Z,25.52
2022-09-04T05:38:30.998Z,24.27
2022-09-04T05:41:11.763Z,25.60
2022-09-04T05:44:02.295Z,23.83
2022-09-04T05:46:59.447Z,22.13
2022-09-04T05:49:45.249Z,32.33
2022-09-04T05:52:56.851Z,27.40
2022-09-04T05:55:53.867Z,32.53
2022-09-04T05:58:26.658Z,28.67
2022-09-04T06:01:14.173Z,35.00
2022-09-04T06:04:00.941Z,29.05
2022-09-04T06:07:04.892Z,32.03
2022-09-04T06:10:00.204Z,28.88
2022-09-04T06:18:04.120Z,33.10
2022-09-04T06:20:36.530Z,36.55
2022-09-04T06:23:27.697Z,42.63
2022-09-04T06:26:06.348Z,45.97
2022-09-04T06:33:20.000Z,41.28
2022-09-04T06:36:06.558Z,45.88
2022-09-04T06:39:11.965Z,35.25
2022-09-04T06:41:44.063Z,34.40
2022-09-04T06:48:33.547Z,34.30
2022-09-04T06:51:22.036Z,30.58
2022-09-04T06:54:27.440Z,33.85
2022-09-04T06:57:22.379Z,34.47
2022-09-04T07:00:09.790Z,34.50
2022-09-04T07:03:18.479Z,32.75
2022-09-04T07:05:54.421Z,32.08
2022-09-04T07:08:39.198Z,41.03
2022-09-04T07:11:20.920Z,37.15
2022-09-04T07:14:20.070Z,37.38
2022-09-04T07:17:14.679Z,30.92
2022-09-04T07:24:56.897Z,32.30
2022-09-04T07:27:29.495Z,32.88
2022-09-04T07:30:08.317Z,36.33
2022-09-04T07:32:45.849Z,36.72
2022-09-04T07:35:18.612Z,35.92
2022-09-04T07:37:58.570Z,32.78
2022-09-04T07:44:54.452Z,36.72
2022-09-04T07:47:42.956Z,40.17
2022-09-04T07:50:17.487Z,42.47
2022-09-04T07:52:53.051Z,40.28
2022-09-04T07:55:40.991Z,40.17
2022-09-04T08:03:01.342Z,41.10
2022-09-04T08:05:31.636Z,44.97
2022-09-04T08:08:22.543Z,39.42
2022-09-04T08:11:02.375Z,37.53
2022-09-04T08:13:47.209Z,43.38
2022-09-04T08:16:31.955Z,42.90
2022-09-04T08:19:35.549Z,43.67
2022-09-04T08:24:57.611Z,40.42
2022-09-04T08:27:47.749Z,40.08
2022-09-04T08:30:15.426Z,36.08
2022-09-04T08:33:23.659Z,33.80
2022-09-04T08:36:00.887Z,31.13
2022-09-04T08:38:46.376Z,32.17
2022-09-04T08:41:31.582Z,43.63
2022-09-04T08:44:16.637Z,37.15
2022-09-04T08:47:06.562Z,34.58
2022-09-04T08:49:55.168Z,39.78
2022-09-04T08:52:50.661Z,37.22
2022-09-04T08:55:35.169Z,41.28
2022-09-04T08:58:13.733Z,40.33
2022-09-04T09:05:58.037Z,46.33
2022-09-04T09:08:52.278Z,55.05
2022-09-04T09:11:54.091Z,42.50
2022-09-04T09:19:33.867Z,45.42
2022-09-04T09:22:11.209Z,55.40
2022-09-04T09:25:03.965Z,57.22
2022-09-04T09:32:13.803Z,57.50
2022-09-04T09:35:22.500Z,63.70
2022-09-04T09:38:15.715Z,55.88
2022-09-04T09:40:57.792Z,66.88
2022-09-04T09:43:51.902Z,60.33
2022-09-04T09:46:58.267Z,58.65
2022-09-04T09:49:27.880Z,60.92
2022-09-04T09:52:19.067Z,65.20
2022-09-04T09:55:03.286Z,61.30
2022-09-04T09:57:49.964Z,63.28
2022-09-04T10:00:19.854Z,52.45
2022-09-04T10:02:55.739Z,55.72
2022-09-04T10:10:24.813Z,51.17
2022-09-04T10:12:59.563Z,56.88
2022-09-04T10:15:53.810Z,38.97
2022-09-04T10:18:46.809Z,44.17
2022-09-04T10:21:25.675Z,41.65
2022-09-04T10:24:07.003Z,34.47
2022-09-04T10:30:55.028Z,38.13
2022-09-04T10:38:14.559Z,28.42
2022-09-04T10:41:18.539Z,27.65
2022-09-04T10:43:58.703Z,31.30
2022-09-04T10:46:37.077Z,24.33
2022-09-04T11:07:28.569Z,23.10
2022-09-04T11:10:01.493Z,15.98
2022-09-04T11:12:53.326Z,15.48
2022-09-04T11:15:35.256Z,12.18
2022-09-04T11:18:35.697Z,8.68
2022-09-04T11:21:35.435Z,9.25
2022-09-04T11:29:11.025Z,10.20
2022-09-04T11:31:53.772Z,10.80
2022-09-04T11:39:00.781Z,7.68
2022-09-04T11:41:45.475Z,7.07
2022-09-04T11:44:50.780Z,6.47
2022-09-04T11:47:40.202Z,9.95
2022-09-04T11:50:25.354Z,8.73
2022-09-04T11:53:11.535Z,10.25
2022-09-04T11:56:26.201Z,8.77
2022-09-04T11:58:52.915Z,6.10
2022-09-04T12:01:31.904Z,6.40
2022-09-04T12:04:23.254Z,4.68
2022-09-04T12:07:08.917Z,7.03
2022-09-04T12:10:03.265Z,6.95
2022-09-04T12:17:15.582Z,6.88
2022-09-04T12:20:08.424Z,5.43
2022-09-04T12:22:56.960Z,5.88
2022-09-04T12:25:58.082Z,6.30
2022-09-04T12:28:44.090Z,5.80
2022-09-04T12:31:51.557Z,5.50
2022-09-04T12:35:01.302Z,4.63
2022-09-04T12:42:37.737Z,5.82
2022-09-04T12:45:21.489Z,6.82
2022-09-04T12:47:57.285Z,4.97
2022-09-04T12:50:39.074Z,5.55
2022-09-04T12:53:35.099Z,4.03
2022-09-04T12:56:26.208Z,6.05
2022-09-04T12:59:16.114Z,6.20
2022-09-04T13:01:55.485Z,3.70
2022-09-04T13:04:40.566Z,7.32
2022-09-04T13:07:17.859Z,8.30
2022-09-04T13:09:53.627Z,5.63
2022-09-04T13:17:23.442Z,8.38
2022-09-04T13:24:19.676Z,5.75
2022-09-04T13:31:07.522Z,5.30
2022-09-04T13:33:43.470Z,4.25
2022-09-04T13:36:25.110Z,3.85
2022-09-04T13:39:04.741Z,4.38
2022-09-04T13:42:02.683Z,5.13
2022-09-04T13:44:42.930Z,5.80
2022-09-04T13:47:21.051Z,3.83
2022-09-04T13:49:56.476Z,4.35
2022-09-04T13:56:58.815Z,5.10
2022-09-04T13:59:25.704Z,6.18
2022-09-04T14:01:57.538Z,4.75
2022-09-04T14:04:31.414Z,3.43
2022-09-04T14:07:02.321Z,5.35
2022-09-04T14:18:27.858Z,4.07
2022-09-04T14:21:01.546Z,6.60
2022-09-04T14:23:48.341Z,5.35
2022-09-04T14:26:28.116Z,9.80
2022-09-04T14:29:15.634Z,5.20
2022-09-04T14:32:10.205Z,6.53
2022-09-04T14:34:50.084Z,4.75
2022-09-04T14:37:35.342Z,6.47
2022-09-04T14:40:16.214Z,5.65
2022-09-04T14:43:16.988Z,5.18
2022-09-04T14:46:08.482Z,4.20
2022-09-04T14:48:41.867Z,5.13
2022-09-04T14:54:17.432Z,5.00
2022-09-04T14:56:50.911Z,6.35
2022-09-04T14:59:24.186Z,6.60
2022-09-04T15:02:33.897Z,4.85
2022-09-04T15:05:10.502Z,8.95
2022-09-04T15:07:42.318Z,6.28
2022-09-04T15:10:24.378Z,3.77
2022-09-04T15:13:19.113Z,4.82
2022-09-04T15:16:16.399Z,6.07
2022-09-04T15:19:24.318Z,4.90
2022-09-04T15:22:22.315Z,5.57
2022-09-04T15:25:19.302Z,8.15
2022-09-04T15:27:51.519Z,6.43
2022-09-04T15:34:49.688Z,6.85
2022-09-04T15:37:27.069Z,6.72
2022-09-04T15:40:12.928Z,5.72
2022-09-04T15:42:53.090Z,6.07
2022-09-04T15:45:27.357Z,6.72
2022-09-04T15:48:16.536Z,4.72
2022-09-04T15:51:04.775Z,7.93
2022-09-04T15:53:36.310Z,6.43
2022-09-04T16:01:08.242Z,7.53
2022-09-04T16:04:07.510Z,7.78
2022-09-04T16:06:42.730Z,6.97
2022-09-04T16:09:16.876Z,7.40
2022-09-04T16:16:18.763Z,4.90
2022-09-04T16:19:03.976Z,6.43
2022-09-04T16:21:55.493Z,7.75
2022-09-04T16:24:40.172Z,6.63
2022-09-04T16:27:09.334Z,7.65
2022-09-04T16:29:41.224Z,7.45
2022-09-04T16:32:09.965Z,11.53
2022-09-04T16:34:43.713Z,4.30
2022-09-04T16:37:15.752Z,6.38
2022-09-04T16:40:24.625Z,3.95
2022-09-04T16:43:30.448Z,7.25
2022-09-04T16:46:07.798Z,5.47
2022-09-04T16:48:50.018Z,10.30
2022-09-04T16:51:41.453Z,5.60
2022-09-04T16:54:47.777Z,7.65
2022-09-04T16:57:19.408Z,7.07
2022-09-04T16:59:59.473Z,6.53
2022-09-04T17:02:49.213Z,9.65
2022-09-04T17:05:52.873Z,4.03
2022-09-04T17:12:40.941Z,7.18
2022-09-04T17:15:34.599Z,6.43
2022-09-04T17:18:08.268Z,6.47
2022-09-04T17:25:19.645Z,6.28
2022-09-04T17:29:10.112Z,10.52
2022-09-04T17:40:35.641Z,6.07
2022-09-04T17:43:22.868Z,6.30
2022-09-04T17:46:07.048Z,5.90
2022-09-04T17:53:14.501Z,5.80
2022-09-04T18:01:14.934Z,5.63
2022-09-04T18:08:09.831Z,7.38
2022-09-04T18:10:45.725Z,6.30
2022-09-04T18:13:36.580Z,5.72
2022-09-04T18:37:22.651Z,5.75
2022-09-04T18:37:46.316Z,3.80
2022-09-04T18:40:17.199Z,6.43
2022-09-04T18:50:33.209Z,6.45
2022-09-04T18:50:40.194Z,4.22
2022-09-04T18:50:51.123Z,5.97
2022-09-04T18:51:57.924Z,9.10
2022-09-04T18:54:33.523Z,5.07
2022-09-04T18:57:13.129Z,6.43
2022-09-04T18:59:45.655Z,4.95
2022-09-04T19:02:27.222Z,11.02
2022-09-04T19:21:08.799Z,7.22
2022-09-04T19:24:03.365Z,5.65
2022-09-04T19:26:49.307Z,13.85
2022-09-04T19:29:55.715Z,6.28
2022-09-04T19:32:59.569Z,5.15
2022-09-04T19:35:37.130Z,5.97
2022-09-04T19:41:38.197Z,8.35
2022-09-04T19:46:08.897Z,9.57
2022-09-04T19:46:15.503Z,9.57
2022-09-04T19:53:18.426Z,8.63
2022-09-04T19:53:42.222Z,7.57
2022-09-04T19:56:42.307Z,5.85
2022-09-04T19:59:30.824Z,7.03
2022-09-04T20:02:03.022Z,6.38
2022-09-04T20:04:43.757Z,8.65
2022-09-04T20:07:48.667Z,8.27
2022-09-04T20:10:42.446Z,8.82
2022-09-04T20:13:40.277Z,9.38
2022-09-04T20:16:28.850Z,6.18
2022-09-04T20:19:03.703Z,5.15
2022-09-04T20:21:46.087Z,10.18
2022-09-04T20:24:18.467Z,7.28
2022-09-04T20:26:46.585Z,8.35
2022-09-04T20:29:20.813Z,11.63
2022-09-04T20:32:26.613Z,7.90
2022-09-04T20:35:13.703Z,9.23
2022-09-04T20:37:48.936Z,8.52
2022-09-04T20:40:34.817Z,8.65
2022-09-04T20:43:12.456Z,6.93
2022-09-04T20:52:44.663Z,11.02
2022-09-04T20:52:59.684Z,8.60
2022-09-04T20:53:05.902Z,9.55
2022-09-04T20:54:41.372Z,8.18
2022-09-04T21:02:50.667Z,8.85
2022-09-04T21:03:13.597Z,10.85
2022-09-04T21:03:30.712Z,9.93
2022-09-04T21:06:25.211Z,7.25
2022-09-04T21:08:57.175Z,10.15
2022-09-04T21:11:39.446Z,9.00
2022-09-04T21:14:20.804Z,14.43
2022-09-04T21:17:35.171Z,5.93
2022-09-04T21:20:27.709Z,7.93
2022-09-04T21:23:31.814Z,7.75
2022-09-04T21:26:15.191Z,5.90
2022-09-04T21:28:56.454Z,8.63
2022-09-04T21:31:44.675Z,7.07
2022-09-04T21:34:30.430Z,8.57
2022-09-04T21:37:02.747Z,6.80
2022-09-04T21:39:51.003Z,11.27
2022-09-04T21:42:41.002Z,7.63
2022-09-04T21:45:17.486Z,7.93
2022-09-04T21:48:02.985Z,11.38
2022-09-04T21:50:55.473Z,10.82
2022-09-04T21:54:23.277Z,7.70
2022-09-04T22:02:26.918Z,10.48
2022-09-04T22:02:42.253Z,10.23
2022-09-04T22:03:29.288Z,8.20
2022-09-04T22:06:03.781Z,8.38
2022-09-04T22:13:31.713Z,8.05
2022-09-04T22:13:38.065Z,8.20
2022-09-04T22:14:52.073Z,8.73
2022-09-04T22:17:59.443Z,8.45
2022-09-04T22:20:40.295Z,8.25
2022-09-04T22:23:35.057Z,8.20
2022-09-04T22:26:23.214Z,8.27
2022-09-04T22:29:03.042Z,7.35
2022-09-04T22:31:42.894Z,6.18
2022-09-04T22:34:51.690Z,7.72
2022-09-04T22:37:57.309Z,7.18
2022-09-04T22:40:44.510Z,8.98
2022-09-04T22:43:29.381Z,7.32
2022-09-04T22:46:55.409Z,9.32
2022-09-04T22:49:36.311Z,8.18
2022-09-04T22:52:48.490Z,11.68
2022-09-04T22:55:40.201Z,6.47
2022-09-04T22:58:48.242Z,10.32
2022-09-04T23:01:33.088Z,7.95
2022-09-04T23:04:09.021Z,10.00
2022-09-04T23:10:39.807Z,9.38
2022-09-04T23:13:49.105Z,9.18
2022-09-04T23:14:00.478Z,6.20
2022-09-04T23:16:34.741Z,8.65
2022-09-04T23:22:27.734Z,7.25
2022-09-04T23:26:43.384Z,10.45
2022-09-04T23:29:06.616Z,7.38
2022-09-04T23:31:46.226Z,14.43
2022-09-04T23:34:57.718Z,7.57
2022-09-04T23:38:03.722Z,7.80
2022-09-04T23:40:36.524Z,9.07
2022-09-04T23:46:01.961Z,10.82
2022-09-04T23:48:48.853Z,5.82
2022-09-04T23:51:33.126Z,9.40
2022-09-04T23:54:02.463Z,9.35
2022-09-04T23:56:51.834Z,8.23
2022-09-04T23:59:36.355Z,5.90
